MSC Jordan — HPMK — position and weather

sailwx.info

Track history (hours):
 
Tides and Currents Weather Stations Pressure Air Temp Water Temp Dewpoint Dewpoint Depression Visibility Wind Speed Wind Dir Waves Ship Positions

MSC Jordan

Last reported at 2017-Feb-22 01:32 UTC. Time now 2017-Feb-22 01:42 UTC.
Position N 59°52' E 030°12'.

Length 237 m; draft 9.5 m.

Type: Ship. MMSI: 355194000.

Date/timePositionNaut miles runAvg speedWind from/ knotsBaromVisibWave heightAir tempDewpointWater temp
2017-Feb-22 01:32N 59°52' E 030°12'0 0.0
2017-Feb-22 00:32N 59°52' E 030°12'0 0.0
2017-Feb-21 23:32N 59°52' E 030°12'0 0.0
2017-Feb-21 22:32N 59°52' E 030°12'0 0.0
2017-Feb-21 21:32N 59°52' E 030°12'0 0.0
2017-Feb-21 20:32N 59°52' E 030°12'0 0.0
2017-Feb-21 19:32N 59°52' E 030°12'0 0.0
2017-Feb-21 18:32N 59°52' E 030°12'0 0.0
2017-Feb-21 17:32N 59°52' E 030°12'0 0.0
2017-Feb-21 16:33N 59°52' E 030°12'0 0.1
2017-Feb-21 15:34N 59°52' E 030°12'4 4.2
2017-Feb-21 14:33N 59°54' E 030°05'1111.1
2017-Feb-21 13:34N 59°59' E 029°45'7 6.9
2017-Feb-21 12:33N 60°01' E 029°31'13 9.0
2017-Feb-21 11:09N 60°02' E 029°06'1014.6
2017-Feb-21 10:28N 60°02' E 028°46'1415.2
2017-Feb-21 09:33N 60°06' E 028°19'1817.6
2017-Feb-21 08:32N 60°10' E 027°44'2419.1
2017-Feb-21 07:17N 59°58' E 027°03'1419.1
2017-Feb-21 06:33N 59°59' E 026°34'1919.2
2017-Feb-21 05:32N 59°54' E 025°57'5719.1
2017-Feb-21 02:34N 59°41' E 024°07'2019.0
2017-Feb-21 01:31N 59°34' E 023°30'29219.5
2017-Feb-20 10:33N 56°09' E 016°60'2019.9
2017-Feb-20 09:34N 55°57' E 016°31'2020.0
2017-Feb-20 08:34N 55°48' E 015°59'2020.0
2017-Feb-20 07:34N 55°38' E 015°29'2020.1
2017-Feb-20 06:33N 55°29' E 014°58'2020.0
2017-Feb-20 05:33N 55°16' E 014°30'2020.2
2017-Feb-20 04:33N 55°01' E 014°06'2120.4
2017-Feb-20 03:31N 54°53' E 013°32'2019.9
2017-Feb-20 02:31N 54°46' E 013°00'1919.3
2017-Feb-20 01:34N 54°40' E 012°30'1918.9
2017-Feb-20 00:34N 54°25' E 012°10'1918.8
2017-Feb-19 23:33N 54°27' E 011°37'2121.0
2017-Feb-19 22:34N 54°37' E 011°05'1716.8
2017-Feb-19 21:34N 54°52' E 010°52'2020.0
2017-Feb-19 20:34N 55°11' E 011°03'11218.2
2017-Feb-19 14:26N 57°00' E 011°43'1820.3
2017-Feb-19 13:34N 57°17' E 011°31'2020.3
2017-Feb-19 12:34N 57°34' E 011°11'2020.0
2017-Feb-19 11:34N 57°46' E 010°42'27919.3
2017-Feb-18 21:04N 54°14' E 005°16'1119.9
2017-Feb-18 20:32N 54°05' E 005°08'2019.9
2017-Feb-18 19:33N 53°47' E 004°55'2019.7
2017-Feb-18 18:33N 53°28' E 004°44'2019.3
2017-Feb-18 17:30N 53°10' E 004°29'1819.3
2017-Feb-18 16:34N 52°54' E 004°15'1919.2
2017-Feb-18 15:33N 52°39' E 003°56'2019.1
2017-Feb-18 14:31N 52°23' E 003°36'3618.5
2017-Feb-18 12:33N 51°48' E 003°18'11 9.7
2017-Feb-18 11:22N 51°38' E 003°11'1417.5
2017-Feb-18 10:34N 51°26' E 002°59'1919.0
2017-Feb-18 09:34N 51°25' E 003°30'1312.6
2017-Feb-18 08:33N 51°21' E 003°49'1010.3
2017-Feb-18 07:33N 51°22' E 004°05'8 8.2
2017-Feb-18 06:33N 51°18' E 004°16'1 0.5
2017-Feb-18 05:21N 51°18' E 004°16'0 0.0
2017-Feb-18 04:30N 51°18' E 004°16'0 0.0
2017-Feb-18 03:24N 51°18' E 004°16'0 0.0
2017-Feb-18 02:30N 51°18' E 004°16'0 0.0
2017-Feb-17 23:30N 51°18' E 004°16'0 0.0
2017-Feb-17 21:24N 51°18' E 004°16'0 0.0
2017-Feb-17 20:09N 51°18' E 004°16'0 0.0
2017-Feb-17 18:30N 51°18' E 004°16'0 0.0
2017-Feb-17 16:30N 51°18' E 004°16'0 0.0
2017-Feb-17 15:33N 51°18' E 004°16'0 0.0
2017-Feb-17 14:33N 51°18' E 004°16'0 0.0
2017-Feb-17 13:32N 51°18' E 004°16'0 0.0
2017-Feb-17 12:11N 51°18' E 004°16'0 0.0
2017-Feb-17 11:32N 51°18' E 004°16'0 0.0
2017-Feb-17 10:30N 51°18' E 004°16'0 0.0
2017-Feb-17 09:30N 51°18' E 004°16'0 0.0
2017-Feb-17 07:33N 51°18' E 004°16'0 0.0
2017-Feb-17 06:33N 51°18' E 004°16'0 0.0
2017-Feb-17 05:29N 51°18' E 004°16'0 0.0
2017-Feb-17 04:29N 51°18' E 004°16'0 0.0
2017-Feb-17 03:32N 51°18' E 004°16'4 4.1
2017-Feb-17 02:33N 51°21' E 004°14'1110.6
2017-Feb-17 01:33N 51°24' E 003°57'1212.5
2017-Feb-17 00:33N 51°26' E 003°38'1212.1
2017-Feb-16 23:34N 51°24' E 003°19'1615.6
2017-Feb-16 22:33N 51°22' E 002°54'1010.3
2017-Feb-16 21:34N 51°24' E 002°38'1 0.8
2017-Feb-16 20:32N 51°25' E 002°38'0 0.0
2017-Feb-16 19:32N 51°25' E 002°38'0 0.0
2017-Feb-16 18:32N 51°25' E 002°38'4 4.2
2017-Feb-16 17:34N 51°22' E 002°33'5 5.4
2017-Feb-16 16:33N 51°21' E 002°25'4 4.3
2017-Feb-16 15:33N 51°18' E 002°19'6 6.3
2017-Feb-16 14:33N 51°15' E 002°10'1010.1
2017-Feb-16 13:33N 51°10' E 001°57'9 9.1
2017-Feb-16 12:33N 51°05' E 001°44'8 8.2
2017-Feb-16 11:33N 50°60' E 001°34'7 7.4
2017-Feb-16 10:33N 50°54' E 001°27'7 7.3
2017-Feb-16 09:33N 50°47' E 001°23'9 7.6
2017-Feb-16 08:21N 50°39' E 001°16'40 8.2
2017-Feb-16 03:30N 50°23' E 000°19'1515.2
2017-Feb-16 02:31N 50°19' W 000°04'1716.2
2017-Feb-16 01:28N 50°15' W 000°29'4118.3
2017-Feb-15 23:15N 50°05' W 001°31'1819.2
2017-Feb-15 22:19N 50°01' W 001°58'1518.6
2017-Feb-15 21:31N 49°57' W 002°20'1717.4
2017-Feb-15 20:34N 49°52' W 002°45'1919.0
2017-Feb-15 19:33N 49°43' W 003°12'2820.6
2017-Feb-15 18:12N 49°30' W 003°49'66918.7
2017-Feb-14 06:24N 39°13' W 009°51'1719.8
2017-Feb-14 05:33N 38°56' W 009°50'2019.9
2017-Feb-14 04:33N 38°37' W 009°50'2019.9
2017-Feb-14 03:33N 38°17' W 009°51'  
Track history (hours):
 
Tides and Currents Weather Stations Pressure Air Temp Water Temp Dewpoint Dewpoint Depression Visibility Wind Speed Wind Dir Waves Ship Positions

MSC Jordan

Last reported at 2017-Feb-22 01:32 UTC. Time now 2017-Feb-22 01:42 UTC.
Position N 59°52' E 030°12'.

Length 237 m; draft 9.5 m.

Type: Ship. MMSI: 355194000.

Date/timePositionNaut miles runAvg speedWind from/ knotsBaromVisibWave heightAir tempDewpointWater temp
2017-Feb-22 01:32N 59°52' E 030°12'0 0.0
2017-Feb-22 00:32N 59°52' E 030°12'0 0.0
2017-Feb-21 23:32N 59°52' E 030°12'0 0.0
2017-Feb-21 22:32N 59°52' E 030°12'0 0.0
2017-Feb-21 21:32N 59°52' E 030°12'0 0.0
2017-Feb-21 20:32N 59°52' E 030°12'0 0.0
2017-Feb-21 19:32N 59°52' E 030°12'0 0.0
2017-Feb-21 18:32N 59°52' E 030°12'0 0.0
2017-Feb-21 17:32N 59°52' E 030°12'0 0.0
2017-Feb-21 16:33N 59°52' E 030°12'0 0.1
2017-Feb-21 15:34N 59°52' E 030°12'4 4.2
2017-Feb-21 14:33N 59°54' E 030°05'1111.1
2017-Feb-21 13:34N 59°59' E 029°45'7 6.9
2017-Feb-21 12:33N 60°01' E 029°31'13 9.0
2017-Feb-21 11:09N 60°02' E 029°06'1014.6
2017-Feb-21 10:28N 60°02' E 028°46'1415.2
2017-Feb-21 09:33N 60°06' E 028°19'1817.6
2017-Feb-21 08:32N 60°10' E 027°44'2419.1
2017-Feb-21 07:17N 59°58' E 027°03'1419.1
2017-Feb-21 06:33N 59°59' E 026°34'1919.2
2017-Feb-21 05:32N 59°54' E 025°57'5719.1
2017-Feb-21 02:34N 59°41' E 024°07'2019.0
2017-Feb-21 01:31N 59°34' E 023°30'29219.5
2017-Feb-20 10:33N 56°09' E 016°60'2019.9
2017-Feb-20 09:34N 55°57' E 016°31'2020.0
2017-Feb-20 08:34N 55°48' E 015°59'2020.0
2017-Feb-20 07:34N 55°38' E 015°29'2020.1
2017-Feb-20 06:33N 55°29' E 014°58'2020.0
2017-Feb-20 05:33N 55°16' E 014°30'2020.2
2017-Feb-20 04:33N 55°01' E 014°06'2120.4
2017-Feb-20 03:31N 54°53' E 013°32'2019.9
2017-Feb-20 02:31N 54°46' E 013°00'1919.3
2017-Feb-20 01:34N 54°40' E 012°30'1918.9
2017-Feb-20 00:34N 54°25' E 012°10'1918.8
2017-Feb-19 23:33N 54°27' E 011°37'2121.0
2017-Feb-19 22:34N 54°37' E 011°05'1716.8
2017-Feb-19 21:34N 54°52' E 010°52'2020.0
2017-Feb-19 20:34N 55°11' E 011°03'11218.2
2017-Feb-19 14:26N 57°00' E 011°43'1820.3
2017-Feb-19 13:34N 57°17' E 011°31'2020.3
2017-Feb-19 12:34N 57°34' E 011°11'2020.0
2017-Feb-19 11:34N 57°46' E 010°42'27919.3
2017-Feb-18 21:04N 54°14' E 005°16'1119.9
2017-Feb-18 20:32N 54°05' E 005°08'2019.9
2017-Feb-18 19:33N 53°47' E 004°55'2019.7
2017-Feb-18 18:33N 53°28' E 004°44'2019.3
2017-Feb-18 17:30N 53°10' E 004°29'1819.3
2017-Feb-18 16:34N 52°54' E 004°15'1919.2
2017-Feb-18 15:33N 52°39' E 003°56'2019.1
2017-Feb-18 14:31N 52°23' E 003°36'3618.5
2017-Feb-18 12:33N 51°48' E 003°18'11 9.7
2017-Feb-18 11:22N 51°38' E 003°11'1417.5
2017-Feb-18 10:34N 51°26' E 002°59'1919.0
2017-Feb-18 09:34N 51°25' E 003°30'1312.6
2017-Feb-18 08:33N 51°21' E 003°49'1010.3
2017-Feb-18 07:33N 51°22' E 004°05'8 8.2
2017-Feb-18 06:33N 51°18' E 004°16'1 0.5
2017-Feb-18 05:21N 51°18' E 004°16'0 0.0
2017-Feb-18 04:30N 51°18' E 004°16'0 0.0
2017-Feb-18 03:24N 51°18' E 004°16'0 0.0
2017-Feb-18 02:30N 51°18' E 004°16'0 0.0
2017-Feb-17 23:30N 51°18' E 004°16'0 0.0
2017-Feb-17 21:24N 51°18' E 004°16'0 0.0
2017-Feb-17 20:09N 51°18' E 004°16'0 0.0
2017-Feb-17 18:30N 51°18' E 004°16'0 0.0
2017-Feb-17 16:30N 51°18' E 004°16'0 0.0
2017-Feb-17 15:33N 51°18' E 004°16'0 0.0
2017-Feb-17 14:33N 51°18' E 004°16'0 0.0
2017-Feb-17 13:32N 51°18' E 004°16'0 0.0
2017-Feb-17 12:11N 51°18' E 004°16'0 0.0
2017-Feb-17 11:32N 51°18' E 004°16'0 0.0
2017-Feb-17 10:30N 51°18' E 004°16'0 0.0
2017-Feb-17 09:30N 51°18' E 004°16'0 0.0
2017-Feb-17 07:33N 51°18' E 004°16'0 0.0
2017-Feb-17 06:33N 51°18' E 004°16'0 0.0
2017-Feb-17 05:29N 51°18' E 004°16'0 0.0
2017-Feb-17 04:29N 51°18' E 004°16'0 0.0
2017-Feb-17 03:32N 51°18' E 004°16'4 4.1
2017-Feb-17 02:33N 51°21' E 004°14'1110.6
2017-Feb-17 01:33N 51°24' E 003°57'1212.5
2017-Feb-17 00:33N 51°26' E 003°38'1212.1
2017-Feb-16 23:34N 51°24' E 003°19'1615.6
2017-Feb-16 22:33N 51°22' E 002°54'1010.3
2017-Feb-16 21:34N 51°24' E 002°38'1 0.8
2017-Feb-16 20:32N 51°25' E 002°38'0 0.0
2017-Feb-16 19:32N 51°25' E 002°38'0 0.0
2017-Feb-16 18:32N 51°25' E 002°38'4 4.2
2017-Feb-16 17:34N 51°22' E 002°33'5 5.4
2017-Feb-16 16:33N 51°21' E 002°25'4 4.3
2017-Feb-16 15:33N 51°18' E 002°19'6 6.3
2017-Feb-16 14:33N 51°15' E 002°10'1010.1
2017-Feb-16 13:33N 51°10' E 001°57'9 9.1
2017-Feb-16 12:33N 51°05' E 001°44'8 8.2
2017-Feb-16 11:33N 50°60' E 001°34'7 7.4
2017-Feb-16 10:33N 50°54' E 001°27'7 7.3
2017-Feb-16 09:33N 50°47' E 001°23'9 7.6
2017-Feb-16 08:21N 50°39' E 001°16'40 8.2
2017-Feb-16 03:30N 50°23' E 000°19'1515.2
2017-Feb-16 02:31N 50°19' W 000°04'1716.2
2017-Feb-16 01:28N 50°15' W 000°29'4118.3
2017-Feb-15 23:15N 50°05' W 001°31'1819.2
2017-Feb-15 22:19N 50°01' W 001°58'1518.6
2017-Feb-15 21:31N 49°57' W 002°20'1717.4
2017-Feb-15 20:34N 49°52' W 002°45'1919.0
2017-Feb-15 19:33N 49°43' W 003°12'2820.6
2017-Feb-15 18:12N 49°30' W 003°49'66918.7
2017-Feb-14 06:24N 39°13' W 009°51'1719.8
2017-Feb-14 05:33N 38°56' W 009°50'2019.9
2017-Feb-14 04:33N 38°37' W 009°50'2019.9
2017-Feb-14 03:33N 38°17' W 009°51'  

Dump ship's entire track history